createdAt,value
2022-08-12T00:00:22.385Z,100.00
2022-08-12T00:03:07.843Z,100.00
2022-08-12T00:06:04.832Z,100.00
2022-08-12T00:08:52.341Z,100.00
2022-08-12T00:11:38.589Z,100.00
2022-08-12T00:14:24.787Z,100.00
2022-08-12T00:17:10.620Z,100.00
2022-08-12T00:19:55.911Z,100.00
2022-08-12T00:22:41.930Z,100.00
2022-08-12T00:26:00.545Z,100.00
2022-08-12T00:28:33.995Z,100.00
2022-08-12T00:31:19.780Z,100.00
2022-08-12T00:34:05.545Z,100.00
2022-08-12T00:36:51.414Z,100.00
2022-08-12T00:39:36.839Z,100.00
2022-08-12T00:42:13.319Z,100.00
2022-08-12T00:44:42.406Z,100.00
2022-08-12T00:47:25.072Z,100.00
2022-08-12T00:49:54.520Z,100.00
2022-08-12T00:52:22.705Z,100.00
2022-08-12T00:54:51.229Z,100.00
2022-08-12T00:57:35.944Z,100.00
2022-08-12T01:00:12.047Z,100.00
2022-08-12T01:02:46.167Z,100.00
2022-08-12T01:05:37.076Z,100.00
2022-08-12T01:08:23.223Z,100.00
2022-08-12T01:11:10.024Z,100.00
2022-08-12T01:13:44.804Z,100.00
2022-08-12T01:16:12.258Z,100.00
2022-08-12T01:18:40.484Z,100.00
2022-08-12T01:21:19.516Z,100.00
2022-08-12T01:23:50.373Z,100.00
2022-08-12T01:26:21.155Z,100.00
2022-08-12T01:28:52.687Z,100.00
2022-08-12T01:31:20.404Z,100.00
2022-08-12T01:34:35.644Z,100.00
2022-08-12T01:37:02.230Z,100.00
2022-08-12T01:39:37.504Z,100.00
2022-08-12T01:42:11.061Z,100.00
2022-08-12T01:44:39.951Z,100.00
2022-08-12T01:47:30.908Z,100.00
2022-08-12T01:50:26.531Z,100.00
2022-08-12T01:53:26.804Z,100.00
2022-08-12T01:55:55.292Z,100.00
2022-08-12T01:58:57.202Z,100.00
2022-08-12T02:01:34.553Z,100.00
2022-08-12T02:04:43.157Z,100.00
2022-08-12T02:07:50.449Z,100.00
2022-08-12T02:11:05.626Z,100.00
2022-08-12T02:14:12.111Z,100.00
2022-08-12T02:16:42.016Z,100.00
2022-08-12T02:19:23.501Z,100.00
2022-08-12T02:22:08.935Z,100.00
2022-08-12T02:24:38.689Z,100.00
2022-08-12T02:27:08.498Z,100.00
2022-08-12T02:29:36.472Z,100.00
2022-08-12T02:32:04.615Z,100.00
2022-08-12T02:34:33.579Z,100.00
2022-08-12T02:37:03.633Z,100.00
2022-08-12T02:39:34.265Z,100.00
2022-08-12T02:42:04.511Z,100.00
2022-08-12T02:44:37.749Z,100.00
2022-08-12T02:47:07.458Z,100.00
2022-08-12T02:49:58.886Z,100.00
2022-08-12T02:52:27.262Z,100.00
2022-08-12T02:55:01.683Z,100.00
2022-08-12T02:57:31.694Z,100.00
2022-08-12T03:00:00.699Z,100.00
2022-08-12T03:02:30.691Z,100.00
2022-08-12T03:04:59.133Z,100.00
2022-08-12T03:07:26.766Z,100.00
2022-08-12T03:10:16.184Z,100.00
2022-08-12T03:12:48.958Z,100.00
2022-08-12T03:15:22.257Z,100.00
2022-08-12T03:18:28.927Z,100.00
2022-08-12T03:20:58.480Z,100.00
2022-08-12T03:23:29.806Z,100.00
2022-08-12T03:26:00.999Z,100.00
2022-08-12T03:28:48.800Z,100.00
2022-08-12T03:31:15.651Z,100.00
2022-08-12T03:34:00.897Z,100.00
2022-08-12T03:36:35.515Z,100.00
2022-08-12T03:39:19.033Z,100.00
2022-08-12T03:42:00.363Z,100.00
2022-08-12T03:45:05.842Z,100.00
2022-08-12T03:48:13.416Z,100.00
2022-08-12T03:51:06.382Z,100.00
2022-08-12T03:53:52.250Z,100.00
2022-08-12T03:56:38.040Z,100.00
2022-08-12T03:59:26.340Z,100.00
2022-08-12T04:01:57.878Z,100.00
2022-08-12T04:04:26.063Z,100.00
2022-08-12T04:06:53.734Z,100.00
2022-08-12T04:09:22.411Z,100.00
2022-08-12T04:12:08.559Z,100.00
2022-08-12T04:14:35.755Z,100.00
2022-08-12T04:17:03.984Z,100.00
2022-08-12T04:19:31.294Z,100.00
2022-08-12T04:22:03.095Z,100.00
2022-08-12T04:24:35.436Z,100.00
2022-08-12T04:27:08.846Z,100.00
2022-08-12T04:30:16.934Z,100.00
2022-08-12T04:32:27.946Z,100.00
2022-08-12T04:34:55.410Z,100.00
2022-08-12T04:37:23.421Z,100.00
2022-08-12T04:39:51.864Z,100.00
2022-08-12T04:42:20.311Z,100.00
2022-08-12T04:44:48.629Z,100.00
2022-08-12T04:47:17.113Z,100.00
2022-08-12T04:49:46.397Z,100.00
2022-08-12T04:52:13.604Z,100.00
2022-08-12T04:54:41.005Z,100.00
2022-08-12T04:57:09.997Z,100.00
2022-08-12T04:59:48.157Z,100.00
2022-08-12T05:02:20.935Z,100.00
2022-08-12T05:04:56.267Z,100.00
2022-08-12T05:07:28.040Z,100.00
2022-08-12T05:09:59.437Z,100.00
2022-08-12T05:12:42.345Z,100.00
2022-08-12T05:15:16.830Z,100.00
2022-08-12T05:17:53.768Z,100.00
2022-08-12T05:20:22.750Z,100.00
2022-08-12T05:22:53.007Z,100.00
2022-08-12T05:25:24.803Z,100.00
2022-08-12T05:27:58.566Z,100.00
2022-08-12T05:30:39.508Z,100.00
2022-08-12T05:33:06.764Z,100.00
2022-08-12T05:35:40.312Z,100.00
2022-08-12T05:38:26.209Z,100.00
2022-08-12T05:40:53.448Z,100.00
2022-08-12T05:43:20.502Z,100.00
2022-08-12T05:45:48.155Z,100.00
2022-08-12T05:48:15.461Z,100.00
2022-08-12T05:50:43.897Z,100.00
2022-08-12T05:53:10.847Z,100.00
2022-08-12T05:55:38.189Z,100.00
2022-08-12T05:58:05.758Z,100.00
2022-08-12T06:00:32.916Z,100.00
2022-08-12T06:03:02.889Z,100.00
2022-08-12T06:05:43.149Z,100.00
2022-08-12T06:08:23.230Z,100.00
2022-08-12T06:10:50.587Z,100.00
2022-08-12T06:13:28.023Z,100.00
2022-08-12T06:16:07.585Z,100.00
2022-08-12T06:18:35.025Z,100.00
2022-08-12T06:21:02.380Z,100.00
2022-08-12T06:23:30.146Z,100.00
2022-08-12T06:25:57.989Z,100.00
2022-08-12T06:28:25.371Z,100.00
2022-08-12T06:33:59.528Z,100.00
2022-08-12T06:36:33.402Z,100.00
2022-08-12T06:39:01.124Z,100.00
2022-08-12T06:42:05.138Z,100.00
2022-08-12T06:44:33.819Z,98.99
2022-08-12T06:47:00.924Z,92.66
2022-08-12T06:49:33.627Z,87.94
2022-08-12T06:52:00.648Z,85.22
2022-08-12T06:54:30.730Z,83.27
2022-08-12T06:58:04.477Z,78.96
2022-08-12T06:59:51.274Z,77.42
2022-08-12T07:02:20.737Z,73.40
2022-08-12T07:04:50.251Z,71.55
2022-08-12T07:07:18.716Z,67.39
2022-08-12T07:10:05.527Z,66.17
2022-08-12T07:12:32.602Z,68.49
2022-08-12T07:15:02.164Z,67.16
2022-08-12T07:17:37.836Z,65.50
2022-08-12T07:20:29.598Z,60.87
2022-08-12T07:23:02.548Z,59.67
2022-08-12T07:25:37.907Z,63.35
2022-08-12T07:28:17.461Z,60.37
2022-08-12T07:30:46.734Z,59.56
2022-08-12T07:33:14.038Z,58.14
2022-08-12T07:35:45.616Z,57.79
2022-08-12T07:38:30.843Z,56.82
2022-08-12T07:41:04.118Z,57.03
2022-08-12T07:43:33.302Z,56.40
2022-08-12T07:46:02.094Z,58.51
2022-08-12T07:48:40.356Z,60.18
2022-08-12T07:51:07.762Z,57.75
2022-08-12T07:53:47.633Z,56.28
2022-08-12T07:56:22.898Z,56.24
2022-08-12T07:58:49.894Z,56.07
2022-08-12T08:01:21.593Z,56.35
2022-08-12T08:04:17.951Z,55.89
2022-08-12T08:06:46.118Z,55.40
2022-08-12T08:09:15.579Z,53.57
2022-08-12T08:12:00.943Z,52.03
2022-08-12T08:14:32.853Z,51.46
2022-08-12T08:17:06.815Z,50.46
2022-08-12T08:20:02.332Z,48.27
2022-08-12T08:22:25.041Z,46.86
2022-08-12T08:25:35.254Z,46.84
2022-08-12T08:27:56.655Z,46.57
2022-08-12T08:30:24.155Z,45.08
2022-08-12T08:32:51.103Z,44.47
2022-08-12T08:35:18.251Z,43.93
2022-08-12T08:37:48.309Z,44.34
2022-08-12T08:40:34.106Z,43.93
2022-08-12T08:43:01.358Z,43.38
2022-08-12T08:45:28.821Z,43.70
2022-08-12T08:48:00.132Z,42.68
2022-08-12T08:50:27.574Z,42.29
2022-08-12T08:52:54.770Z,40.79
2022-08-12T08:55:30.014Z,40.00
2022-08-12T08:58:04.600Z,39.33
2022-08-12T09:00:31.734Z,38.08
2022-08-12T09:02:59.817Z,38.33
2022-08-12T09:05:43.021Z,37.66
2022-08-12T09:08:20.829Z,37.98
2022-08-12T09:10:49.984Z,37.34
2022-08-12T09:13:29.090Z,36.81
2022-08-12T09:16:20.128Z,36.98
2022-08-12T09:18:52.453Z,36.32
2022-08-12T09:21:20.828Z,35.43
2022-08-12T09:23:58.697Z,35.17
2022-08-12T09:26:31.970Z,34.18
2022-08-12T09:29:11.800Z,35.08
2022-08-12T09:32:07.499Z,34.58
2022-08-12T09:34:33.623Z,33.76
2022-08-12T09:37:18.880Z,33.85
2022-08-12T09:40:03.304Z,33.87
2022-08-12T09:43:15.574Z,34.21
2022-08-12T09:46:20.625Z,33.80
2022-08-12T09:48:35.093Z,33.27
2022-08-12T09:51:04.599Z,33.43
2022-08-12T09:53:39.570Z,34.06
2022-08-12T09:56:59.709Z,32.32
2022-08-12T09:59:01.591Z,33.69
2022-08-12T10:01:34.657Z,31.97
2022-08-12T10:04:19.732Z,31.03
2022-08-12T10:06:55.230Z,31.69
2022-08-12T10:09:56.935Z,31.63
2022-08-12T10:12:31.585Z,31.84
2022-08-12T10:15:01.479Z,32.88
2022-08-12T10:17:28.639Z,32.08
2022-08-12T10:19:55.526Z,30.71
2022-08-12T10:22:40.315Z,29.72
2022-08-12T10:26:34.968Z,30.21
2022-08-12T10:28:38.865Z,31.42
2022-08-12T10:31:06.740Z,31.17
2022-08-12T10:34:05.372Z,30.81
2022-08-12T10:36:40.018Z,30.03
2022-08-12T10:40:01.231Z,29.32
2022-08-12T10:42:29.414Z,29.33
2022-08-12T10:45:04.340Z,29.09
2022-08-12T10:48:20.585Z,28.46
2022-08-12T10:50:36.010Z,29.36
2022-08-12T10:53:11.886Z,29.85
2022-08-12T10:55:48.026Z,28.92
2022-08-12T10:58:31.642Z,28.04
2022-08-12T11:01:49.953Z,27.59
2022-08-12T11:04:23.648Z,27.51
2022-08-12T11:07:06.338Z,28.17
2022-08-12T11:09:41.883Z,27.98
2022-08-12T11:12:56.115Z,27.52
2022-08-12T11:14:59.494Z,27.59
2022-08-12T11:17:43.219Z,27.88
2022-08-12T11:20:15.141Z,28.65
2022-08-12T11:22:42.423Z,28.61
2022-08-12T11:25:25.307Z,28.11
2022-08-12T11:28:13.646Z,27.71
2022-08-12T11:30:42.087Z,27.59
2022-08-12T11:33:12.013Z,27.47
2022-08-12T11:35:42.986Z,27.91
2022-08-12T11:38:11.204Z,28.54
2022-08-12T11:40:42.608Z,29.09
2022-08-12T11:43:18.999Z,28.14
2022-08-12T11:45:47.988Z,28.97
2022-08-12T11:48:19.867Z,28.40
2022-08-12T11:50:53.885Z,28.49
2022-08-12T11:53:57.432Z,28.79
2022-08-12T11:56:11.439Z,29.37
2022-08-12T12:00:23.948Z,29.37
2022-08-12T12:02:01.648Z,28.86
2022-08-12T12:04:12.915Z,28.87
2022-08-12T12:06:56.245Z,29.15
2022-08-12T12:09:52.323Z,29.65
2022-08-12T12:12:20.149Z,30.72
2022-08-12T12:14:54.785Z,31.27
2022-08-12T12:17:24.172Z,30.90
2022-08-12T12:19:53.349Z,29.70
2022-08-12T12:22:23.482Z,29.66
2022-08-12T12:24:54.489Z,29.25
2022-08-12T12:28:03.995Z,29.17
2022-08-12T12:30:18.380Z,28.76
2022-08-12T12:32:53.876Z,29.35
2022-08-12T12:36:07.024Z,29.21
2022-08-12T12:38:11.944Z,29.84
2022-08-12T12:40:45.331Z,29.55
2022-08-12T12:43:13.943Z,30.05
2022-08-12T12:45:44.669Z,30.23
2022-08-12T12:48:18.916Z,30.84
2022-08-12T12:51:13.104Z,29.97
2022-08-12T12:54:06.812Z,29.25
2022-08-12T12:56:34.733Z,30.24
2022-08-12T12:59:03.965Z,29.41
2022-08-12T13:01:38.151Z,29.79
2022-08-12T13:04:12.179Z,30.72
2022-08-12T13:06:41.420Z,29.67
2022-08-12T13:09:13.297Z,28.92
2022-08-12T13:11:41.494Z,29.55
2022-08-12T13:14:28.011Z,29.66
2022-08-12T13:16:57.579Z,29.87
2022-08-12T13:19:37.896Z,30.86
2022-08-12T13:22:21.739Z,29.42
2022-08-12T13:24:56.477Z,29.73
2022-08-12T13:27:40.385Z,30.40
2022-08-12T13:30:15.732Z,31.17
2022-08-12T13:32:57.402Z,30.05
2022-08-12T13:36:02.652Z,29.81
2022-08-12T13:38:14.355Z,29.64
2022-08-12T13:40:41.248Z,30.15
2022-08-12T13:43:08.141Z,29.53
2022-08-12T13:45:40.716Z,28.89
2022-08-12T13:48:08.432Z,28.98
2022-08-12T13:50:41.009Z,29.50
2022-08-12T13:53:24.856Z,30.28
2022-08-12T13:56:01.996Z,30.84
2022-08-12T13:58:33.004Z,30.57
2022-08-12T14:01:06.519Z,29.61
2022-08-12T14:03:50.476Z,30.00
2022-08-12T14:06:19.468Z,28.88
2022-08-12T14:08:49.918Z,27.30
2022-08-12T14:11:19.280Z,28.07
2022-08-12T14:14:03.082Z,28.69
2022-08-12T14:16:47.032Z,29.25
2022-08-12T14:19:24.250Z,29.36
2022-08-12T14:22:01.048Z,29.41
2022-08-12T14:24:35.771Z,29.42
2022-08-12T14:27:08.745Z,29.65
2022-08-12T14:30:05.350Z,29.12
2022-08-12T14:32:25.944Z,29.22
2022-08-12T14:34:53.196Z,29.39
2022-08-12T14:37:55.489Z,29.37
2022-08-12T14:40:18.268Z,29.44
2022-08-12T14:42:47.034Z,29.53
2022-08-12T14:45:14.687Z,29.30
2022-08-12T14:47:58.808Z,29.82
2022-08-12T14:50:41.321Z,29.22
2022-08-12T14:55:24.664Z,29.17
2022-08-12T14:59:25.425Z,28.04
2022-08-12T15:01:54.721Z,27.24
2022-08-12T15:04:26.217Z,26.94
2022-08-12T15:06:55.209Z,27.46
2022-08-12T15:09:29.074Z,27.76
2022-08-12T15:12:03.539Z,27.83
2022-08-12T15:14:31.880Z,27.29
2022-08-12T15:17:00.328Z,27.39
2022-08-12T15:20:11.582Z,28.18
2022-08-12T15:22:35.702Z,28.35
2022-08-12T15:25:07.826Z,28.74
2022-08-12T15:28:03.766Z,28.96
2022-08-12T15:30:31.580Z,29.01
2022-08-12T15:32:59.208Z,28.80
2022-08-12T15:35:38.116Z,28.92
2022-08-12T15:38:13.726Z,28.69
2022-08-12T15:40:46.839Z,28.20
2022-08-12T15:44:15.670Z,27.67
2022-08-12T15:46:06.473Z,27.92
2022-08-12T15:48:34.172Z,28.00
2022-08-12T15:51:02.957Z,28.00
2022-08-12T15:53:53.155Z,28.56
2022-08-12T15:56:29.577Z,28.60
2022-08-12T15:59:00.847Z,28.96
2022-08-12T16:01:34.114Z,29.08
2022-08-12T16:04:02.254Z,28.94
2022-08-12T16:07:00.504Z,29.70
2022-08-12T16:09:21.342Z,29.93
2022-08-12T16:11:48.907Z,29.10
2022-08-12T16:14:16.350Z,29.22
2022-08-12T16:16:43.451Z,29.04
2022-08-12T16:20:04.991Z,29.82
2022-08-12T16:22:11.529Z,30.15
2022-08-12T16:24:43.758Z,30.35
2022-08-12T16:27:11.425Z,30.06
2022-08-12T16:29:53.201Z,30.44
2022-08-12T16:32:24.169Z,30.35
2022-08-12T16:34:59.899Z,30.31
2022-08-12T16:37:32.374Z,30.32
2022-08-12T16:40:05.987Z,29.67
2022-08-12T16:42:39.285Z,29.56
2022-08-12T16:45:13.734Z,29.41
2022-08-12T16:47:58.324Z,28.12
2022-08-12T16:50:30.920Z,28.02
2022-08-12T16:53:02.549Z,28.57
2022-08-12T16:55:41.775Z,29.13
2022-08-12T16:58:27.950Z,29.56
2022-08-12T17:01:01.939Z,29.29
2022-08-12T17:03:36.560Z,29.90
2022-08-12T17:06:06.271Z,30.61
2022-08-12T17:08:33.725Z,30.99
2022-08-12T17:11:00.777Z,30.69
2022-08-12T17:13:29.098Z,31.32
2022-08-12T17:16:06.270Z,31.44
2022-08-12T17:18:57.336Z,31.30
2022-08-12T17:21:41.876Z,31.02
2022-08-12T17:24:17.298Z,32.18
2022-08-12T17:26:49.463Z,31.07
2022-08-12T17:29:31.883Z,30.96
2022-08-12T17:32:11.313Z,31.06
2022-08-12T17:34:57.256Z,31.47
2022-08-12T17:37:24.255Z,31.33
2022-08-12T17:40:15.483Z,31.76
2022-08-12T17:42:38.431Z,31.80
2022-08-12T17:45:17.138Z,31.74
2022-08-12T17:47:45.174Z,32.08
2022-08-12T17:50:29.250Z,32.30
2022-08-12T17:53:02.787Z,32.17
2022-08-12T17:55:43.501Z,32.52
2022-08-12T17:58:15.901Z,32.98
2022-08-12T18:00:45.732Z,32.97
2022-08-12T18:04:04.578Z,33.46
2022-08-12T18:06:14.281Z,33.35
2022-08-12T18:08:54.968Z,33.57
2022-08-12T18:12:03.257Z,33.57
2022-08-12T18:14:29.987Z,33.92
2022-08-12T18:17:00.715Z,34.24
2022-08-12T18:20:04.160Z,34.57
2022-08-12T18:22:22.158Z,34.83
2022-08-12T18:25:02.464Z,34.81
2022-08-12T18:27:46.635Z,35.26
2022-08-12T18:30:16.323Z,35.54
2022-08-12T18:32:59.083Z,35.52
2022-08-12T18:35:47.978Z,35.86
2022-08-12T18:38:22.309Z,35.60
2022-08-12T18:41:10.151Z,35.86
2022-08-12T18:44:00.278Z,35.93
2022-08-12T18:46:38.032Z,35.93
2022-08-12T18:49:18.853Z,35.73
2022-08-12T18:51:55.651Z,35.89
2022-08-12T18:54:41.599Z,36.62
2022-08-12T18:58:05.945Z,36.67
2022-08-12T19:00:21.229Z,36.72
2022-08-12T19:02:52.109Z,36.93
2022-08-12T19:05:20.510Z,36.93
2022-08-12T19:08:01.263Z,37.33
2022-08-12T19:10:30.367Z,37.63
2022-08-12T19:13:23.530Z,37.80
2022-08-12T19:15:57.968Z,38.10
2022-08-12T19:18:31.299Z,38.22
2022-08-12T19:21:06.813Z,38.84
2022-08-12T19:23:39.466Z,38.67
2022-08-12T19:26:12.191Z,39.12
2022-08-12T19:28:40.618Z,39.27
2022-08-12T19:31:45.335Z,40.32
2022-08-12T19:37:38.334Z,41.25
2022-08-12T19:40:31.453Z,41.21
2022-08-12T19:42:57.716Z,41.76
2022-08-12T19:45:42.021Z,42.06
2022-08-12T19:48:17.043Z,42.82
2022-08-12T19:50:50.365Z,42.99
2022-08-12T19:53:22.854Z,43.64
2022-08-12T19:55:53.202Z,44.38
2022-08-12T19:58:21.429Z,44.72
2022-08-12T20:00:56.260Z,45.34
2022-08-12T20:03:38.937Z,46.19
2022-08-12T20:06:13.852Z,47.12
2022-08-12T20:08:47.756Z,48.82
2022-08-12T20:12:13.268Z,48.65
2022-08-12T20:14:07.280Z,49.88
2022-08-12T20:16:52.135Z,49.86
2022-08-12T20:19:23.309Z,50.55
2022-08-12T20:21:51.087Z,50.85
2022-08-12T20:24:19.069Z,51.54
2022-08-12T20:26:48.201Z,52.07
2022-08-12T20:29:16.607Z,52.42
2022-08-12T20:31:44.343Z,52.63
2022-08-12T20:34:12.333Z,52.97
2022-08-12T20:36:44.632Z,53.23
2022-08-12T20:39:34.005Z,53.51
2022-08-12T20:42:07.077Z,53.81
2022-08-12T20:44:39.924Z,54.27
2022-08-12T20:47:20.209Z,54.66
2022-08-12T20:49:55.808Z,54.86
2022-08-12T20:52:30.033Z,55.03
2022-08-12T20:54:58.193Z,56.02
2022-08-12T20:57:37.994Z,56.92
2022-08-12T21:00:14.432Z,58.44
2022-08-12T21:02:45.762Z,59.43
2022-08-12T21:06:11.700Z,60.83
2022-08-12T21:08:40.905Z,60.79
2022-08-12T21:11:09.798Z,61.79
2022-08-12T21:13:41.938Z,63.01
2022-08-12T21:16:10.207Z,64.05
2022-08-12T21:18:37.983Z,64.55
2022-08-12T21:21:05.724Z,65.48
2022-08-12T21:23:37.244Z,66.31
2022-08-12T21:26:11.402Z,66.44
2022-08-12T21:28:56.870Z,66.52
2022-08-12T21:32:37.616Z,66.73
2022-08-12T21:34:19.533Z,67.27
2022-08-12T21:36:49.541Z,67.00
2022-08-12T21:39:21.342Z,66.73
2022-08-12T21:41:51.930Z,66.61
2022-08-12T21:45:44.256Z,66.57
2022-08-12T21:47:20.749Z,67.31
2022-08-12T21:49:55.558Z,67.42
2022-08-12T21:52:34.459Z,67.56
2022-08-12T21:55:03.785Z,67.78
2022-08-12T21:57:36.212Z,68.27
2022-08-12T22:00:17.524Z,67.95
2022-08-12T22:03:03.393Z,68.17
2022-08-12T22:05:49.148Z,68.61
2022-08-12T22:08:22.354Z,69.10
2022-08-12T22:10:56.563Z,69.16
2022-08-12T22:14:02.525Z,69.66
2022-08-12T22:16:12.244Z,69.04
2022-08-12T22:18:50.316Z,69.39
2022-08-12T22:21:24.485Z,69.91
2022-08-12T22:24:05.145Z,69.94
2022-08-12T22:26:37.585Z,70.09
2022-08-12T22:29:26.797Z,70.38
2022-08-12T22:31:55.613Z,70.80
2022-08-12T22:34:29.479Z,70.88
2022-08-12T22:36:57.608Z,71.45
2022-08-12T22:39:26.459Z,71.43
2022-08-12T22:42:11.909Z,72.04
2022-08-12T22:44:57.236Z,72.51
2022-08-12T22:47:49.725Z,72.39
2022-08-12T22:50:27.602Z,72.23
2022-08-12T22:53:15.307Z,72.11
2022-08-12T22:56:00.623Z,72.47
2022-08-12T22:58:33.841Z,72.78
2022-08-12T23:01:03.476Z,72.96
2022-08-12T23:03:48.391Z,73.48
2022-08-12T23:06:16.944Z,73.85
2022-08-12T23:08:43.831Z,73.96
2022-08-12T23:11:10.836Z,74.12
2022-08-12T23:13:55.496Z,74.94
2022-08-12T23:16:31.117Z,76.18
2022-08-12T23:19:10.405Z,76.50
2022-08-12T23:22:05.472Z,77.65
2022-08-12T23:24:39.338Z,77.85
2022-08-12T23:27:44.221Z,78.20
2022-08-12T23:30:18.486Z,78.54
2022-08-12T23:32:54.593Z,78.91
2022-08-12T23:35:45.879Z,79.23
2022-08-12T23:38:28.960Z,79.84
2022-08-12T23:41:00.851Z,81.21
2022-08-12T23:43:39.095Z,82.26
2022-08-12T23:46:09.131Z,82.73
2022-08-12T23:48:37.918Z,83.87
2022-08-12T23:51:22.215Z,84.59
2022-08-12T23:53:59.660Z,85.24
2022-08-12T23:56:27.011Z,85.84
2022-08-12T23:58:57.518Z,86.18
